Aviation Digital Data Service (ADDS)

Output produced by METARs form (0057 UTC 22 September 2017)
found at http://www.aviationweather.gov/adds/metars/
 
ZBHH 220000Z 14002MPS 090V190 CAVOK 09/M01 Q1017 NOSIG
TAF ZBHH 211906Z 2200/2224 30004MPS 9999 FEW040 TX24/2208Z TN06/2221Z
       
ZGGG 220030Z 07002MPS 030V100 9000 NSC 30/25 Q1011 NOSIG
TAF ZGGG 212101Z 2200/2224 09003MPS 8000 SCT040 TX35/2206Z TN27/2222Z 
     TEMPO 2205/2211 2500 TSRA SCT011 SCT030CB BKN033
       
ZGSZ 220000Z 02003MPS 350V050 9999 FEW030CB 30/25 Q1010 NOSIG
TAF ZGSZ 211903Z 2200/2224 24004MPS 6000 FEW020 TX32/2206Z TN28/2222Z 
     TEMPO 2204/2210 TSRA SCT011 FEW020CB BKN030 
     BECMG 2205/2206 17004MPS 
     BECMG 2209/2210 10004MPS
       
ZBTJ 220030Z 33005MPS CAVOK 22/12 Q1009 NOSIG
TAF ZBTJ 211930Z 2200/2224 34008MPS CAVOK TX26/2207Z TN17/2221Z 
     BECMG 2208/2209 20004MPS
       
ZBAA 220030Z 31006G12MPS 280V340 CAVOK 23/04 Q1010 NOSIG
TAF ZBAA 212120Z 2200/2224 32008G14MPS CAVOK TX28/2207Z TN14/2221Z
       
ZSFZ 220000Z 01002MPS 340V040 9999 SCT013 27/24 Q1012 NOSIG
TAF ZSFZ 211908Z 2200/2224 06004MPS 6000 FEW020 TX33/2206Z TN25/2221Z 
     TEMPO 2206/2212 2500 TSRA BR BKN011 FEW025CB
       
ZYCC 220000Z 16003MPS 9999 FEW026TCU SCT026 16/12 Q1008 RETS NOSIG
TAF ZYCC 211911Z 2200/2224 19004MPS 6000 FEW023 TX19/2206Z TN16/2221Z 
     TEMPO 2201/2207 2000 TSRA SCT020CB BKN020
       
ZWWW 220030Z 17003MPS 140V210 CAVOK 15/02 Q1013 NOSIG
TAF ZWWW 212112Z 2200/2224 18004MPS CAVOK TX24/2208Z TN10/2223Z 
     BECMG 2202/2203 36004MPS 
     BECMG 2213/2214 18004MPS
       
ZSAM 220000Z 06003MPS 7000 FEW019TCU BKN027 29/24 Q1012 NOSIG
TAF ZSAM 211925Z 2200/2224 15003MPS 6000 SCT025 TX34/2206Z TN26/2221Z 
     TEMPO 2206/2209 27007G12MPS 3000 TSRA FEW023CB BKN025
       
ZSSS 220030Z 01002MPS 7000 NSC 23/20 Q1013 NOSIG
TAF ZSSS 211915Z 2200/2224 06004MPS 6000 BKN020 TX25/2206Z TN21/2221Z
       
ZGHA 220000Z 07001MPS 4000 BR NSC 23/21 Q1013 NOSIG
TAF ZGHA 211903Z 2200/2224 35003MPS 2500 BR NSC TX28/2207Z TN22/2222Z 
     BECMG 2200/2201 4000
       
ZUCK 220000Z 02002MPS 350V050 8000 NSC 21/20 Q1014 NOSIG
TAF ZUCK 211908Z 2200/2224 02003MPS 3500 BR SCT030 TX26/2207Z TN19/2222Z 
     TEMPO 2218/2224 -RA
       
ZWSH 220000Z 32004MPS 9999 SCT040 14/08 Q1015 NOSIG
TAF ZWSH 212132Z 2200/2224 21004MPS 9999 FEW040 TX21/2209Z TN15/2200Z 
     BECMG 2205/2206 09004MPS 
     BECMG 2214/2215 31004MPS
       
ZGKL 220000Z VRB02MPS CAVOK 25/23 Q1012 NOSIG
TAF ZGKL 211916Z 2200/2224 05003MPS CAVOK TX31/2208Z TN24/2222Z
       
ZSNB 220000Z VRB01MPS 5000 BR SCT016 BKN050 23/23 Q1013 NOSIG
TAF ZSNB 211929Z 2200/2224 01004MPS 3500 -RA BR SCT004 BKN020 TX27/2206Z TN21/2221Z
       
ZSQD 220000Z 20004MPS CAVOK 24/19 Q1011 NOSIG
TAF ZSQD 212000Z 2200/2224 18006MPS 5000 BR NSC TX29/2206Z TN18/2221Z 
     BECMG 2209/2210 18003MPS 
     BECMG 2213/2214 02004MPS
       
ZSNJ 220000Z 13002MPS 090V170 2200 BR SCT012 22/21 Q1013 BECMG TL0130 3000
TAF ZSNJ 211901Z 2200/2224 12003MPS 3000 BR BKN040 TX26/2206Z TN20/2221Z
       
ZSOF 220000Z 18002MPS 150V210 1200 R15/1100V1600U BR FEW002 20/20 Q1013 BECMG TL0100 1500
TAF AMD ZSOF 212338Z 2200/2224 09003MPS 0300 FG VV003 TX28/2207Z TN20/2221Z 
     BECMG 2200/2201 0700 FG 
     BECMG 2201/2202 2100 BR NSC 
     BECMG 2202/2203 3000 BR
       
ZJHK 220000Z 11002MPS CAVOK 28/26 Q1009 NOSIG
TAF ZJHK 211905Z 2200/2224 09003MPS 9999 SCT020 TX33/2206Z TN25/2221Z 
     BECMG 2204/2205 SCT020 FEW026CB 
     BECMG 2210/2211 SCT020 
     TEMPO 2205/2211 -TSRA
       
ZJSY 220000Z VRB01MPS 9999 FEW020 28/25 Q1009 NOSIG
TAF ZJSY 211919Z 2200/2224 08004MPS 9999 SCT020 TX32/2206Z TN26/2221Z 
     TEMPO 2206/2212 TSRA SCT015 FEW025CB
       
ZSPD 220030Z 34003MPS 320V020 9999 FEW011 23/20 Q1014 NOSIG
TAF ZSPD 212113Z 2200/2224 07004MPS 6000 SCT016 TX25/2206Z TN21/2221Z
       
ZUUU 220000Z VRB01MPS 2000 BR FEW008 SCT040 22/21 Q1014 NOSIG
TAF AMD ZUUU 220042Z 2200/2224 20003MPS 2100 BR SCT050 TX26/2207Z TN22/2200Z 
     BECMG 2201/2202 3500
       
ZYHB 220000Z 18005MPS 9999 SCT030 17/12 Q1005 BECMG TL0030 TS
TAF AMD ZYHB 212343Z 2200/2224 17006G11MPS 6000 SCT033 TX22/2206Z TN11/2221Z 
     TEMPO 2200/2206 VRB09G18MPS 2000 TSRA SCT026CB BKN030
       
ZYTX 220030Z 16005G11MPS 100V190 CAVOK 23/16 Q1006 NOSIG
TAF ZYTX 211901Z 2200/2224 20003MPS 6000 -SHRA FEW030CB OVC040 TX23/2206Z TN15/2220Z 
     BECMG 2206/2207 NSW NSC 
     TEMPO 2200/2203 -TSRA SCT026CB OVC030
       
ZHHH 220000Z VRB01MPS 5000 BR NSC 22/21 Q1013 NOSIG
TAF ZHHH 211903Z 2200/2224 13003MPS 6000 NSC TX29/2207Z TN21/2222Z
       
ZPPP 220000Z 00000MPS 1600 SHRA BR SCT002 FEW016CB SCT016 OVC033 16/16 Q1023 BECMG TL0130 3500 -SHRA
TAF AMD ZPPP 212213Z 2200/2224 04004MPS 4000 BR SCT003 OVC033 TX22/2208Z TN14/2223Z
       
ZBYN 220030Z VRB01MPS 3000 BR NSC 14/13 Q1016 NOSIG
TAF ZBYN 211901Z 2200/2224 31004MPS 3000 HZ NSC TX27/2207Z TN11/2221Z
       
ZGNN 220000Z VRB01MPS 6000 FEW011 27/25 Q1011 NOSIG
TAF ZGNN 211908Z 2200/2224 14003MPS 7000 SCT030 TX34/2207Z TN26/2222Z
       
ZLXY 220000Z 04003MPS 5000 BR NSC 19/16 Q1014 NOSIG
TAF ZLXY 211911Z 2200/2224 06003MPS 3000 HZ NSC TX27/2207Z TN17/2222Z
       
ZSHC 220030Z 00000MPS 2800 BR SCT012 SCT020 23/21 Q1014 NOSIG
TAF ZSHC 211915Z 2200/2224 06003MPS 3000 BR SCT010 BKN020 TX27/2206Z TN22/2221Z 
     TEMPO 2218/2224 2300 -RA BR
       
ZHCC 220000Z VRB01MPS 2500 BR NSC 22/19 Q1011 BECMG TL0040 3000
TAF ZHCC 211908Z 2200/2224 18003MPS 5000 HZ NSC TX30/2207Z TN20/2222Z
       
ZBSJ 220000Z 25003MPS CAVOK 19/14 Q1010 NOSIG
TAF AMD ZBSJ 212204Z 2200/2224 33004MPS CAVOK TX30/2206Z TN14/2221Z
       
ZLLL 220000Z 34003MPS CAVOK 10/05 Q1020 NOSIG
TAF ZLLL 211928Z 2200/2224 06003MPS CAVOK TX24/2209Z TN07/2223Z 
     TEMPO 2206/2212 SCT023 FEW033CB
       
ZYTL 220030Z 18003MPS 130V220 9999 SCT026 22/19 Q1009 NOSIG
TAF AMD ZYTL 212326Z 2200/2224 19006G12MPS 8000 SCT033 TX26/2206Z TN18/2221Z 
     TEMPO 2200/2202 3000 -TSRA BR SCT010 BKN026 SCT033CB